sensor_id;sensor_type;location;lat;lon;timestamp;temperature;humidity
16674;DHT22;8450;52.654;10.326;2022-07-24T04:39:16;9.40;99.90
16674;DHT22;8450;52.654;10.326;2022-07-24T04:41:41;9.50;99.90
16674;DHT22;8450;52.654;10.326;2022-07-24T04:44:07;9.50;99.90
16674;DHT22;8450;52.654;10.326;2022-07-24T04:46:33;9.60;99.90
16674;DHT22;8450;52.654;10.326;2022-07-24T04:48:58;9.70;99.90
16674;DHT22;8450;52.654;10.326;2022-07-24T04:51:24;9.80;99.90
16674;DHT22;8450;52.654;10.326;2022-07-24T04:53:50;9.90;99.90
16674;DHT22;8450;52.654;10.326;2022-07-24T04:56:19;10.00;99.90
16674;DHT22;8450;52.654;10.326;2022-07-24T04:58:44;10.10;99.90
16674;DHT22;8450;52.654;10.326;2022-07-24T05:01:10;10.10;99.90
16674;DHT22;8450;52.654;10.326;2022-07-24T05:03:36;10.20;99.90
16674;DHT22;8450;52.654;10.326;2022-07-24T05:06:01;10.40;99.90
16674;DHT22;8450;52.654;10.326;2022-07-24T05:08:27;10.50;99.90
16674;DHT22;8450;52.654;10.326;2022-07-24T05:10:52;10.60;99.90
16674;DHT22;8450;52.654;10.326;2022-07-24T05:13:18;10.70;99.90
16674;DHT22;8450;52.654;10.326;2022-07-24T05:15:44;10.80;99.90
16674;DHT22;8450;52.654;10.326;2022-07-24T05:18:09;10.90;99.90
16674;DHT22;8450;52.654;10.326;2022-07-24T05:20:35;10.90;99.90
16674;DHT22;8450;52.654;10.326;2022-07-24T05:23:01;11.00;99.90
16674;DHT22;8450;52.654;10.326;2022-07-24T05:25:26;11.10;99.90
16674;DHT22;8450;52.654;10.326;2022-07-24T05:27:52;11.20;99.90
16674;DHT22;8450;52.654;10.326;2022-07-24T05:30:18;11.20;99.90
16674;DHT22;8450;52.654;10.326;2022-07-24T05:32:43;11.40;99.90
16674;DHT22;8450;52.654;10.326;2022-07-24T05:35:09;11.40;99.90
16674;DHT22;8450;52.654;10.326;2022-07-24T05:37:34;11.50;99.90
16674;DHT22;8450;52.654;10.326;2022-07-24T05:40:00;11.60;99.90
16674;DHT22;8450;52.654;10.326;2022-07-24T05:42:25;11.80;99.90
16674;DHT22;8450;52.654;10.326;2022-07-24T05:44:51;12.00;99.90
16674;DHT22;8450;52.654;10.326;2022-07-24T05:47:16;12.00;99.90
16674;DHT22;8450;52.654;10.326;2022-07-24T05:49:42;12.30;99.90
16674;DHT22;8450;52.654;10.326;2022-07-24T05:52:08;12.50;99.90
16674;DHT22;8450;52.654;10.326;2022-07-24T05:54:33;12.70;99.90
16674;DHT22;8450;52.654;10.326;2022-07-24T05:56:59;12.90;99.90
16674;DHT22;8450;52.654;10.326;2022-07-24T05:59:24;13.00;99.90
16674;DHT22;8450;52.654;10.326;2022-07-24T06:01:50;13.10;99.90
16674;DHT22;8450;52.654;10.326;2022-07-24T06:04:15;13.30;99.90
16674;DHT22;8450;52.654;10.326;2022-07-24T06:06:41;13.50;99.90
16674;DHT22;8450;52.654;10.326;2022-07-24T06:09:06;13.70;99.90
16674;DHT22;8450;52.654;10.326;2022-07-24T06:11:32;13.90;99.90
16674;DHT22;8450;52.654;10.326;2022-07-24T06:13:57;14.10;99.90
16674;DHT22;8450;52.654;10.326;2022-07-24T06:16:23;14.40;99.90
16674;DHT22;8450;52.654;10.326;2022-07-24T06:18:48;14.50;99.90
16674;DHT22;8450;52.654;10.326;2022-07-24T06:21:14;14.90;99.90
16674;DHT22;8450;52.654;10.326;2022-07-24T06:23:40;15.00;99.90
16674;DHT22;8450;52.654;10.326;2022-07-24T06:26:05;15.20;99.90
16674;DHT22;8450;52.654;10.326;2022-07-24T06:28:31;15.40;99.90
16674;DHT22;8450;52.654;10.326;2022-07-24T06:30:56;15.70;99.90
16674;DHT22;8450;52.654;10.326;2022-07-24T06:33:22;15.90;99.90
16674;DHT22;8450;52.654;10.326;2022-07-24T06:35:48;16.10;99.90
16674;DHT22;8450;52.654;10.326;2022-07-24T06:38:13;16.40;99.90
16674;DHT22;8450;52.654;10.326;2022-07-24T06:40:41;16.50;99.90
16674;DHT22;8450;52.654;10.326;2022-07-24T06:43:07;16.70;99.90
16674;DHT22;8450;52.654;10.326;2022-07-24T06:45:32;16.90;99.90
16674;DHT22;8450;52.654;10.326;2022-07-24T06:48:01;17.10;99.90
16674;DHT22;8450;52.654;10.326;2022-07-24T06:50:27;17.40;99.90
16674;DHT22;8450;52.654;10.326;2022-07-24T06:52:53;17.60;99.90
16674;DHT22;8450;52.654;10.326;2022-07-24T06:55:19;17.80;99.90
16674;DHT22;8450;52.654;10.326;2022-07-24T06:57:44;18.00;99.90
16674;DHT22;8450;52.654;10.326;2022-07-24T07:00:11;18.20;99.90
16674;DHT22;8450;52.654;10.326;2022-07-24T07:02:37;18.40;99.90
16674;DHT22;8450;52.654;10.326;2022-07-24T07:05:07;18.70;99.90
16674;DHT22;8450;52.654;10.326;2022-07-24T07:07:33;18.90;99.90
16674;DHT22;8450;52.654;10.326;2022-07-24T07:09:59;19.00;99.90
16674;DHT22;8450;52.654;10.326;2022-07-24T07:12:24;19.20;99.90
16674;DHT22;8450;52.654;10.326;2022-07-24T07:14:50;19.30;99.90
16674;DHT22;8450;52.654;10.326;2022-07-24T07:17:15;19.50;99.90
16674;DHT22;8450;52.654;10.326;2022-07-24T07:19:42;19.80;99.90
16674;DHT22;8450;52.654;10.326;2022-07-24T07:22:08;20.00;99.90
16674;DHT22;8450;52.654;10.326;2022-07-24T07:24:34;20.20;99.90
16674;DHT22;8450;52.654;10.326;2022-07-24T07:26:59;20.40;99.90
16674;DHT22;8450;52.654;10.326;2022-07-24T07:29:25;20.60;99.90
16674;DHT22;8450;52.654;10.326;2022-07-24T07:31:51;20.90;99.90
16674;DHT22;8450;52.654;10.326;2022-07-24T07:34:17;21.00;99.90
16674;DHT22;8450;52.654;10.326;2022-07-24T07:36:42;21.10;99.90
16674;DHT22;8450;52.654;10.326;2022-07-24T07:39:08;21.30;99.90
16674;DHT22;8450;52.654;10.326;2022-07-24T07:41:33;21.60;99.90
16674;DHT22;8450;52.654;10.326;2022-07-24T07:43:59;21.90;99.90
16674;DHT22;8450;52.654;10.326;2022-07-24T07:46:25;22.10;99.90
16674;DHT22;8450;52.654;10.326;2022-07-24T07:48:51;22.30;99.90
16674;DHT22;8450;52.654;10.326;2022-07-24T07:51:17;22.40;99.90
16674;DHT22;8450;52.654;10.326;2022-07-24T07:53:42;22.60;99.90
16674;DHT22;8450;52.654;10.326;2022-07-24T07:56:08;22.80;99.90
16674;DHT22;8450;52.654;10.326;2022-07-24T07:58:33;23.00;99.90
16674;DHT22;8450;52.654;10.326;2022-07-24T08:01:00;23.30;99.90
16674;DHT22;8450;52.654;10.326;2022-07-24T08:03:25;23.30;99.90
16674;DHT22;8450;52.654;10.326;2022-07-24T08:05:51;23.60;99.90
16674;DHT22;8450;52.654;10.326;2022-07-24T08:08:16;23.90;99.90
16674;DHT22;8450;52.654;10.326;2022-07-24T08:10:42;24.10;99.90
16674;DHT22;8450;52.654;10.326;2022-07-24T08:13:08;24.20;99.90
16674;DHT22;8450;52.654;10.326;2022-07-24T08:15:34;24.20;99.90
16674;DHT22;8450;52.654;10.326;2022-07-24T08:17:59;24.20;99.90
16674;DHT22;8450;52.654;10.326;2022-07-24T08:20:26;24.50;99.90
16674;DHT22;8450;52.654;10.326;2022-07-24T08:22:52;24.80;99.90
16674;DHT22;8450;52.654;10.326;2022-07-24T08:25:18;24.90;99.90
16674;DHT22;8450;52.654;10.326;2022-07-24T08:27:44;25.00;99.90
16674;DHT22;8450;52.654;10.326;2022-07-24T08:30:10;24.90;99.90
16674;DHT22;8450;52.654;10.326;2022-07-24T08:32:36;25.10;99.90
16674;DHT22;8450;52.654;10.326;2022-07-24T08:35:03;25.30;99.90
16674;DHT22;8450;52.654;10.326;2022-07-24T08:37:29;25.70;99.90
16674;DHT22;8450;52.654;10.326;2022-07-24T08:39:55;26.00;99.90
16674;DHT22;8450;52.654;10.326;2022-07-24T08:42:21;26.30;99.90
16674;DHT22;8450;52.654;10.326;2022-07-24T08:44:47;26.50;99.90
16674;DHT22;8450;52.654;10.326;2022-07-24T08:47:14;26.70;99.90
16674;DHT22;8450;52.654;10.326;2022-07-24T08:49:41;26.10;99.90
16674;DHT22;8450;52.654;10.326;2022-07-24T08:52:09;26.00;99.90
16674;DHT22;8450;52.654;10.326;2022-07-24T08:54:35;26.40;99.90
16674;DHT22;8450;52.654;10.326;2022-07-24T08:57:03;26.80;99.90
16674;DHT22;8450;52.654;10.326;2022-07-24T08:59:29;27.30;99.90
16674;DHT22;8450;52.654;10.326;2022-07-24T09:01:54;27.50;99.90
16674;DHT22;8450;52.654;10.326;2022-07-24T09:04:38;27.50;99.90
16674;DHT22;8450;52.654;10.326;2022-07-24T09:07:07;27.90;99.90
16674;DHT22;8450;52.654;10.326;2022-07-24T09:09:33;28.20;99.90
16674;DHT22;8450;52.654;10.326;2022-07-24T09:12:07;28.10;99.90
16674;DHT22;8450;52.654;10.326;2022-07-24T09:14:39;28.20;99.90
16674;DHT22;8450;52.654;10.326;2022-07-24T09:17:07;28.30;99.90
16674;DHT22;8450;52.654;10.326;2022-07-24T09:19:54;28.20;99.90
16674;DHT22;8450;52.654;10.326;2022-07-24T09:28:00;27.70;99.90
16674;DHT22;8450;52.654;10.326;2022-07-24T09:30:35;28.10;99.90
16674;DHT22;8450;52.654;10.326;2022-07-24T09:35:48;28.60;99.90
16674;DHT22;8450;52.654;10.326;2022-07-24T09:38:21;28.30;99.90
16674;DHT22;8450;52.654;10.326;2022-07-24T09:40:52;28.20;99.90
16674;DHT22;8450;52.654;10.326;2022-07-24T09:43:22;28.70;99.90
16674;DHT22;8450;52.654;10.326;2022-07-24T09:45:58;29.20;99.90
16674;DHT22;8450;52.654;10.326;2022-07-24T09:48:30;29.50;99.90
16674;DHT22;8450;52.654;10.326;2022-07-24T09:51:01;29.70;99.90
16674;DHT22;8450;52.654;10.326;2022-07-24T09:53:29;29.50;99.90
16674;DHT22;8450;52.654;10.326;2022-07-24T09:56:04;29.60;99.90
16674;DHT22;8450;52.654;10.326;2022-07-24T09:58:31;29.80;99.90
16674;DHT22;8450;52.654;10.326;2022-07-24T10:00:58;29.50;99.90
16674;DHT22;8450;52.654;10.326;2022-07-24T10:03:28;30.10;99.90
16674;DHT22;8450;52.654;10.326;2022-07-24T10:06:00;30.10;99.90
16674;DHT22;8450;52.654;10.326;2022-07-24T10:08:26;29.80;99.90
16674;DHT22;8450;52.654;10.326;2022-07-24T10:10:52;30.70;99.90
16674;DHT22;8450;52.654;10.326;2022-07-24T10:13:18;31.00;99.90
16674;DHT22;8450;52.654;10.326;2022-07-24T10:18:50;30.40;99.90
16674;DHT22;8450;52.654;10.326;2022-07-24T10:21:21;30.40;99.90
16674;DHT22;8450;52.654;10.326;2022-07-24T10:26:39;31.20;99.90
16674;DHT22;8450;52.654;10.326;2022-07-24T10:29:14;31.30;99.90
16674;DHT22;8450;52.654;10.326;2022-07-24T10:31:42;31.40;99.90
16674;DHT22;8450;52.654;10.326;2022-07-24T10:37:22;31.30;99.90
16674;DHT22;8450;52.654;10.326;2022-07-24T10:40:17;31.90;99.90
16674;DHT22;8450;52.654;10.326;2022-07-24T10:45:32;32.80;99.10
16674;DHT22;8450;52.654;10.326;2022-07-24T10:47:57;33.10;99.70
16674;DHT22;8450;52.654;10.326;2022-07-24T10:50:24;33.00;98.90
16674;DHT22;8450;52.654;10.326;2022-07-24T10:53:22;32.50;97.50
16674;DHT22;8450;52.654;10.326;2022-07-24T10:55:48;32.90;98.90
16674;DHT22;8450;52.654;10.326;2022-07-24T10:58:14;33.40;98.60
16674;DHT22;8450;52.654;10.326;2022-07-24T11:00:45;33.40;96.50
16674;DHT22;8450;52.654;10.326;2022-07-24T11:03:23;33.70;97.90
16674;DHT22;8450;52.654;10.326;2022-07-24T11:06:06;33.30;95.80
16674;DHT22;8450;52.654;10.326;2022-07-24T11:08:40;33.90;96.20
16674;DHT22;8450;52.654;10.326;2022-07-24T11:11:12;33.40;94.90
16674;DHT22;8450;52.654;10.326;2022-07-24T11:13:38;32.60;94.80
16674;DHT22;8450;52.654;10.326;2022-07-24T11:18:40;30.70;94.70
16674;DHT22;8450;52.654;10.326;2022-07-24T11:21:08;31.50;94.80
16674;DHT22;8450;52.654;10.326;2022-07-24T11:23:34;32.00;95.80
16674;DHT22;8450;52.654;10.326;2022-07-24T11:29:13;32.50;94.90
16674;DHT22;8450;52.654;10.326;2022-07-24T11:31:41;33.00;95.50
16674;DHT22;8450;52.654;10.326;2022-07-24T11:34:08;33.80;94.10
16674;DHT22;8450;52.654;10.326;2022-07-24T11:36:35;34.10;93.90
16674;DHT22;8450;52.654;10.326;2022-07-24T11:39:03;34.00;94.40
16674;DHT22;8450;52.654;10.326;2022-07-24T11:41:52;34.20;94.70
16674;DHT22;8450;52.654;10.326;2022-07-24T11:44:28;34.60;94.00
16674;DHT22;8450;52.654;10.326;2022-07-24T11:46:59;34.80;92.80
16674;DHT22;8450;52.654;10.326;2022-07-24T11:49:30;35.20;91.50
16674;DHT22;8450;52.654;10.326;2022-07-24T11:51:55;35.00;91.20
16674;DHT22;8450;52.654;10.326;2022-07-24T11:54:26;33.10;90.50
16674;DHT22;8450;52.654;10.326;2022-07-24T11:56:53;32.60;90.90
16674;DHT22;8450;52.654;10.326;2022-07-24T11:59:27;32.90;90.90
16674;DHT22;8450;52.654;10.326;2022-07-24T12:02:06;32.80;91.00
16674;DHT22;8450;52.654;10.326;2022-07-24T12:04:32;33.60;92.40
16674;DHT22;8450;52.654;10.326;2022-07-24T12:06:58;32.60;90.00
16674;DHT22;8450;52.654;10.326;2022-07-24T12:09:24;33.70;91.60
16674;DHT22;8450;52.654;10.326;2022-07-24T12:11:50;34.50;92.00
16674;DHT22;8450;52.654;10.326;2022-07-24T12:14:20;34.70;90.30
16674;DHT22;8450;52.654;10.326;2022-07-24T12:16:54;35.10;90.30
16674;DHT22;8450;52.654;10.326;2022-07-24T12:19:22;35.20;91.60
16674;DHT22;8450;52.654;10.326;2022-07-24T12:21:50;34.60;90.70
16674;DHT22;8450;52.654;10.326;2022-07-24T12:24:17;34.20;89.70
16674;DHT22;8450;52.654;10.326;2022-07-24T12:26:53;34.30;90.70
16674;DHT22;8450;52.654;10.326;2022-07-24T12:29:20;35.00;91.40
16674;DHT22;8450;52.654;10.326;2022-07-24T12:31:46;34.80;87.10
16674;DHT22;8450;52.654;10.326;2022-07-24T12:34:12;35.30;89.20
16674;DHT22;8450;52.654;10.326;2022-07-24T12:36:38;35.70;88.30
16674;DHT22;8450;52.654;10.326;2022-07-24T12:39:05;35.50;89.40
16674;DHT22;8450;52.654;10.326;2022-07-24T12:41:44;35.30;87.50
16674;DHT22;8450;52.654;10.326;2022-07-24T12:44:10;35.60;89.10
16674;DHT22;8450;52.654;10.326;2022-07-24T12:49:07;34.10;90.40
16674;DHT22;8450;52.654;10.326;2022-07-24T12:54:22;35.50;89.20
16674;DHT22;8450;52.654;10.326;2022-07-24T12:56:56;35.90;87.40
16674;DHT22;8450;52.654;10.326;2022-07-24T12:59:40;35.90;88.50
16674;DHT22;8450;52.654;10.326;2022-07-24T13:02:22;36.20;88.70
16674;DHT22;8450;52.654;10.326;2022-07-24T13:04:55;35.70;85.10
16674;DHT22;8450;52.654;10.326;2022-07-24T13:07:24;34.80;89.50
16674;DHT22;8450;52.654;10.326;2022-07-24T13:09:50;35.70;86.10
16674;DHT22;8450;52.654;10.326;2022-07-24T13:12:16;35.30;88.70
16674;DHT22;8450;52.654;10.326;2022-07-24T13:14:43;36.10;90.00
16674;DHT22;8450;52.654;10.326;2022-07-24T13:19:37;37.30;87.20
16674;DHT22;8450;52.654;10.326;2022-07-24T13:22:03;36.40;84.70
16674;DHT22;8450;52.654;10.326;2022-07-24T13:24:28;37.30;87.60
16674;DHT22;8450;52.654;10.326;2022-07-24T13:26:55;37.30;84.30
16674;DHT22;8450;52.654;10.326;2022-07-24T13:29:21;37.20;83.90
16674;DHT22;8450;52.654;10.326;2022-07-24T13:31:49;37.30;81.70
16674;DHT22;8450;52.654;10.326;2022-07-24T13:34:15;36.50;81.90
16674;DHT22;8450;52.654;10.326;2022-07-24T13:36:41;36.80;85.00
16674;DHT22;8450;52.654;10.326;2022-07-24T13:39:07;37.70;86.00
16674;DHT22;8450;52.654;10.326;2022-07-24T13:41:34;37.60;85.40
16674;DHT22;8450;52.654;10.326;2022-07-24T13:44:01;37.80;83.60
16674;DHT22;8450;52.654;10.326;2022-07-24T13:46:27;37.30;83.60
16674;DHT22;8450;52.654;10.326;2022-07-24T13:48:54;38.00;83.00
16674;DHT22;8450;52.654;10.326;2022-07-24T13:51:20;37.80;82.90
16674;DHT22;8450;52.654;10.326;2022-07-24T13:53:45;38.10;80.30
16674;DHT22;8450;52.654;10.326;2022-07-24T13:56:11;38.20;83.00
16674;DHT22;8450;52.654;10.326;2022-07-24T13:58:37;38.10;80.00
16674;DHT22;8450;52.654;10.326;2022-07-24T14:01:06;37.70;80.10
16674;DHT22;8450;52.654;10.326;2022-07-24T14:03:32;38.20;80.70
16674;DHT22;8450;52.654;10.326;2022-07-24T14:05:59;37.40;80.40
16674;DHT22;8450;52.654;10.326;2022-07-24T14:08:25;37.10;82.40
16674;DHT22;8450;52.654;10.326;2022-07-24T14:10:51;37.00;82.30
16674;DHT22;8450;52.654;10.326;2022-07-24T14:13:16;36.90;82.90
16674;DHT22;8450;52.654;10.326;2022-07-24T14:15:42;37.70;80.40
16674;DHT22;8450;52.654;10.326;2022-07-24T14:18:08;37.90;81.00
16674;DHT22;8450;52.654;10.326;2022-07-24T14:20:33;36.50;78.70
16674;DHT22;8450;52.654;10.326;2022-07-24T14:22:59;37.20;79.70
16674;DHT22;8450;52.654;10.326;2022-07-24T14:25:25;37.00;80.50
16674;DHT22;8450;52.654;10.326;2022-07-24T14:27:50;37.90;83.30
16674;DHT22;8450;52.654;10.326;2022-07-24T14:30:16;38.50;80.70
16674;DHT22;8450;52.654;10.326;2022-07-24T14:32:42;37.50;81.40
16674;DHT22;8450;52.654;10.326;2022-07-24T14:35:08;38.30;81.40
16674;DHT22;8450;52.654;10.326;2022-07-24T14:37:37;38.80;81.50
16674;DHT22;8450;52.654;10.326;2022-07-24T14:40:05;38.80;80.50
16674;DHT22;8450;52.654;10.326;2022-07-24T14:42:31;38.90;78.80
16674;DHT22;8450;52.654;10.326;2022-07-24T14:44:57;39.10;80.30
16674;DHT22;8450;52.654;10.326;2022-07-24T14:47:22;39.10;78.80
16674;DHT22;8450;52.654;10.326;2022-07-24T14:49:48;39.50;78.00
16674;DHT22;8450;52.654;10.326;2022-07-24T14:52:14;39.60;78.60
16674;DHT22;8450;52.654;10.326;2022-07-24T14:54:39;38.70;75.50
16674;DHT22;8450;52.654;10.326;2022-07-24T14:57:05;38.60;78.30
16674;DHT22;8450;52.654;10.326;2022-07-24T14:59:32;38.70;78.70
16674;DHT22;8450;52.654;10.326;2022-07-24T15:01:58;39.30;78.50
16674;DHT22;8450;52.654;10.326;2022-07-24T15:04:23;39.40;77.10
16674;DHT22;8450;52.654;10.326;2022-07-24T15:06:49;39.30;78.90
16674;DHT22;8450;52.654;10.326;2022-07-24T15:09:14;39.70;77.90
16674;DHT22;8450;52.654;10.326;2022-07-24T15:11:40;40.30;78.30
16674;DHT22;8450;52.654;10.326;2022-07-24T15:14:05;40.00;76.20
16674;DHT22;8450;52.654;10.326;2022-07-24T15:16:31;39.40;78.90
16674;DHT22;8450;52.654;10.326;2022-07-24T15:18:56;39.40;78.70
16674;DHT22;8450;52.654;10.326;2022-07-24T15:21:22;39.10;73.90
16674;DHT22;8450;52.654;10.326;2022-07-24T15:23:47;39.30;76.10
16674;DHT22;8450;52.654;10.326;2022-07-24T15:26:13;39.90;77.30
16674;DHT22;8450;52.654;10.326;2022-07-24T15:28:39;39.80;76.20
16674;DHT22;8450;52.654;10.326;2022-07-24T15:31:04;39.90;75.80
16674;DHT22;8450;52.654;10.326;2022-07-24T15:33:30;40.10;74.50
16674;DHT22;8450;52.654;10.326;2022-07-24T15:35:56;39.10;77.40
16674;DHT22;8450;52.654;10.326;2022-07-24T15:38:21;39.30;75.40
16674;DHT22;8450;52.654;10.326;2022-07-24T15:40:47;39.50;76.90
16674;DHT22;8450;52.654;10.326;2022-07-24T15:43:13;40.20;76.80
16674;DHT22;8450;52.654;10.326;2022-07-24T15:45:38;40.40;76.70
16674;DHT22;8450;52.654;10.326;2022-07-24T15:48:04;39.40;75.60
16674;DHT22;8450;52.654;10.326;2022-07-24T15:50:31;40.00;76.90
16674;DHT22;8450;52.654;10.326;2022-07-24T15:52:56;39.50;74.80
16674;DHT22;8450;52.654;10.326;2022-07-24T15:55:22;39.70;74.70
16674;DHT22;8450;52.654;10.326;2022-07-24T15:57:48;38.40;72.10
16674;DHT22;8450;52.654;10.326;2022-07-24T16:00:14;38.60;75.90
16674;DHT22;8450;52.654;10.326;2022-07-24T16:02:40;38.70;76.20
16674;DHT22;8450;52.654;10.326;2022-07-24T16:05:05;38.80;75.90
16674;DHT22;8450;52.654;10.326;2022-07-24T16:07:31;38.70;77.00
16674;DHT22;8450;52.654;10.326;2022-07-24T16:09:57;39.50;75.70
16674;DHT22;8450;52.654;10.326;2022-07-24T16:12:24;39.50;77.10
16674;DHT22;8450;52.654;10.326;2022-07-24T16:14:49;39.90;74.90
16674;DHT22;8450;52.654;10.326;2022-07-24T16:17:15;40.00;75.50
16674;DHT22;8450;52.654;10.326;2022-07-24T16:19:41;39.90;74.00
16674;DHT22;8450;52.654;10.326;2022-07-24T16:22:07;40.10;74.30
16674;DHT22;8450;52.654;10.326;2022-07-24T16:24:32;40.10;75.30
16674;DHT22;8450;52.654;10.326;2022-07-24T16:26:58;40.50;74.20
16674;DHT22;8450;52.654;10.326;2022-07-24T16:29:24;40.50;75.20
16674;DHT22;8450;52.654;10.326;2022-07-24T16:31:50;40.30;74.50
16674;DHT22;8450;52.654;10.326;2022-07-24T16:34:16;40.10;75.90
16674;DHT22;8450;52.654;10.326;2022-07-24T16:36:41;40.40;74.40
16674;DHT22;8450;52.654;10.326;2022-07-24T16:39:07;40.30;74.50
16674;DHT22;8450;52.654;10.326;2022-07-24T16:41:33;40.30;74.90
16674;DHT22;8450;52.654;10.326;2022-07-24T16:43:58;40.00;73.20
16674;DHT22;8450;52.654;10.326;2022-07-24T16:46:24;39.10;72.10
16674;DHT22;8450;52.654;10.326;2022-07-24T16:48:52;39.10;74.80
16674;DHT22;8450;52.654;10.326;2022-07-24T16:51:18;39.20;74.30
16674;DHT22;8450;52.654;10.326;2022-07-24T16:53:44;39.40;75.40
16674;DHT22;8450;52.654;10.326;2022-07-24T16:56:10;39.50;76.10
16674;DHT22;8450;52.654;10.326;2022-07-24T16:58:37;39.80;76.00
16674;DHT22;8450;52.654;10.326;2022-07-24T17:01:03;40.00;73.70
16674;DHT22;8450;52.654;10.326;2022-07-24T17:03:29;39.80;73.20
16674;DHT22;8450;52.654;10.326;2022-07-24T17:05:55;39.90;73.60
16674;DHT22;8450;52.654;10.326;2022-07-24T17:08:20;40.20;73.10
16674;DHT22;8450;52.654;10.326;2022-07-24T17:10:46;39.70;73.10
16674;DHT22;8450;52.654;10.326;2022-07-24T17:13:14;39.20;74.10
16674;DHT22;8450;52.654;10.326;2022-07-24T17:15:40;39.50;75.70
16674;DHT22;8450;52.654;10.326;2022-07-24T17:18:06;39.40;72.80
16674;DHT22;8450;52.654;10.326;2022-07-24T17:20:37;39.50;72.70
16674;DHT22;8450;52.654;10.326;2022-07-24T17:23:07;39.40;73.30
16674;DHT22;8450;52.654;10.326;2022-07-24T17:25:36;39.30;74.60
16674;DHT22;8450;52.654;10.326;2022-07-24T17:28:04;39.60;75.40
16674;DHT22;8450;52.654;10.326;2022-07-24T17:30:30;39.60;75.70
16674;DHT22;8450;52.654;10.326;2022-07-24T17:32:57;39.90;77.60
16674;DHT22;8450;52.654;10.326;2022-07-24T17:35:23;40.20;75.80
16674;DHT22;8450;52.654;10.326;2022-07-24T17:37:48;40.20;75.40
16674;DHT22;8450;52.654;10.326;2022-07-24T17:40:14;40.20;75.10
16674;DHT22;8450;52.654;10.326;2022-07-24T17:42:40;40.10;75.60
16674;DHT22;8450;52.654;10.326;2022-07-24T17:45:06;40.30;73.80
16674;DHT22;8450;52.654;10.326;2022-07-24T17:47:33;40.00;73.70
16674;DHT22;8450;52.654;10.326;2022-07-24T17:50:00;39.60;74.40
16674;DHT22;8450;52.654;10.326;2022-07-24T17:52:26;39.20;72.50
16674;DHT22;8450;52.654;10.326;2022-07-24T17:54:52;38.70;73.30
16674;DHT22;8450;52.654;10.326;2022-07-24T17:57:17;37.70;76.00
16674;DHT22;8450;52.654;10.326;2022-07-24T17:59:43;36.70;75.90
16674;DHT22;8450;52.654;10.326;2022-07-24T18:02:08;35.60;78.60
16674;DHT22;8450;52.654;10.326;2022-07-24T18:04:34;34.80;79.40
16674;DHT22;8450;52.654;10.326;2022-07-24T18:07:00;33.90;80.40
16674;DHT22;8450;52.654;10.326;2022-07-24T18:09:26;33.20;83.40
16674;DHT22;8450;52.654;10.326;2022-07-24T18:11:52;32.40;86.20
16674;DHT22;8450;52.654;10.326;2022-07-24T18:14:17;31.80;86.90
16674;DHT22;8450;52.654;10.326;2022-07-24T18:16:43;31.30;86.50
16674;DHT22;8450;52.654;10.326;2022-07-24T18:19:09;31.00;87.70
16674;DHT22;8450;52.654;10.326;2022-07-24T18:21:35;30.50;88.80
16674;DHT22;8450;52.654;10.326;2022-07-24T18:24:00;30.20;89.00
16674;DHT22;8450;52.654;10.326;2022-07-24T18:26:26;29.80;90.10
16674;DHT22;8450;52.654;10.326;2022-07-24T18:28:51;29.50;90.90
16674;DHT22;8450;52.654;10.326;2022-07-24T18:31:17;29.30;91.90
16674;DHT22;8450;52.654;10.326;2022-07-24T18:33:42;29.00;92.40
16674;DHT22;8450;52.654;10.326;2022-07-24T18:36:08;28.80;93.50
16674;DHT22;8450;52.654;10.326;2022-07-24T18:38:34;28.60;93.40
16674;DHT22;8450;52.654;10.326;2022-07-24T18:41:11;28.40;94.30
16674;DHT22;8450;52.654;10.326;2022-07-24T18:43:37;28.10;93.90
16674;DHT22;8450;52.654;10.326;2022-07-24T18:46:03;27.80;93.90
